createdAt,value
2023-02-13T00:01:36.432Z,98402.81
2023-02-13T00:04:05.552Z,98403.66
2023-02-13T00:06:33.926Z,98397.31
2023-02-13T00:09:05.162Z,98404.78
2023-02-13T00:11:35.364Z,98400.03
2023-02-13T00:14:06.102Z,98400.44
2023-02-13T00:16:35.075Z,98393.94
2023-02-13T00:19:03.501Z,98391.44
2023-02-13T00:21:32.609Z,98389.91
2023-02-13T00:24:00.997Z,98385.94
2023-02-13T00:26:31.131Z,98387.22
2023-02-13T00:28:59.441Z,98376.97
2023-02-13T00:31:29.892Z,98375.00
2023-02-13T00:33:59.873Z,98381.06
2023-02-13T00:36:29.603Z,98379.50
2023-02-13T00:38:58.508Z,98373.16
2023-02-13T00:41:26.952Z,98370.34
2023-02-13T00:43:56.415Z,98362.19
2023-02-13T00:46:24.843Z,98370.66
2023-02-13T00:48:56.740Z,98378.38
2023-02-13T00:51:27.126Z,98370.09
2023-02-13T00:53:55.435Z,98376.81
2023-02-13T00:56:25.547Z,98364.16
2023-02-13T00:58:54.183Z,98380.19
2023-02-13T01:01:22.531Z,98377.66
2023-02-13T01:03:51.815Z,98383.84
2023-02-13T01:06:21.523Z,98382.16
2023-02-13T01:08:50.674Z,98388.78
2023-02-13T01:11:19.302Z,98391.06
2023-02-13T01:13:48.193Z,98391.44
2023-02-13T01:16:18.194Z,98394.69
2023-02-13T01:18:46.687Z,98390.88
2023-02-13T01:21:18.785Z,98389.63
2023-02-13T01:23:49.260Z,98370.34
2023-02-13T01:26:24.268Z,98388.63
2023-02-13T01:28:54.842Z,98394.69
2023-02-13T01:31:24.350Z,98391.31
2023-02-13T01:33:57.755Z,98389.16
2023-02-13T01:36:26.867Z,98389.31
2023-02-13T01:39:00.568Z,98384.13
2023-02-13T01:41:29.520Z,98381.59
2023-02-13T01:43:59.907Z,98386.81
2023-02-13T01:46:32.669Z,98392.16
2023-02-13T01:49:08.162Z,98389.22
2023-02-13T01:51:37.583Z,98385.09
2023-02-13T01:54:12.007Z,98379.06
2023-02-13T01:56:43.286Z,98383.41
2023-02-13T01:59:17.559Z,98375.69
2023-02-13T02:01:46.598Z,98368.22
2023-02-13T02:04:19.148Z,98378.78
2023-02-13T02:06:50.855Z,98380.78
2023-02-13T02:09:33.652Z,98334.31
2023-02-13T02:12:07.285Z,98360.09
2023-02-13T02:14:39.363Z,98370.22
2023-02-13T02:17:10.065Z,98364.72
2023-02-13T02:19:43.534Z,98366.16
2023-02-13T02:23:04.366Z,98366.53
2023-02-13T02:26:10.409Z,98368.81
2023-02-13T02:29:33.608Z,98367.41
2023-02-13T02:32:18.706Z,98359.25
2023-02-13T02:35:03.658Z,98367.25
2023-02-13T02:37:46.794Z,98364.00
2023-02-13T02:40:26.588Z,98366.56
2023-02-13T02:43:15.035Z,98360.50
2023-02-13T02:45:54.144Z,98358.53
2023-02-13T02:48:50.209Z,98354.88
2023-02-13T02:51:27.476Z,98354.88
2023-02-13T02:54:26.853Z,98365.84
2023-02-13T02:57:00.396Z,98364.59
2023-02-13T02:59:51.696Z,98365.31
2023-02-13T03:02:38.626Z,98363.03
2023-02-13T03:05:37.348Z,98356.69
2023-02-13T03:08:06.620Z,98341.94
2023-02-13T03:10:57.033Z,98361.22
2023-02-13T03:13:40.165Z,98356.13
2023-02-13T03:16:34.050Z,98340.41
2023-02-13T03:19:34.805Z,98356.72
2023-02-13T03:22:19.458Z,98353.88
2023-02-13T03:24:59.501Z,98348.97
2023-02-13T03:27:58.536Z,98355.84
2023-02-13T03:30:36.879Z,98350.50
2023-02-13T03:33:19.417Z,98348.81
2023-02-13T03:36:13.034Z,98348.81
2023-02-13T03:38:48.651Z,98349.53
2023-02-13T03:41:24.875Z,98351.63
2023-02-13T03:44:12.091Z,98357.41
2023-02-13T03:46:44.180Z,98355.72
2023-02-13T03:49:36.527Z,98351.50
2023-02-13T03:52:09.212Z,98351.22
2023-02-13T03:55:02.973Z,98345.88
2023-02-13T03:57:53.055Z,98338.25
2023-02-13T04:00:22.406Z,98348.41
2023-02-13T04:02:58.644Z,98354.59
2023-02-13T04:05:33.382Z,98347.00
2023-02-13T04:08:02.652Z,98351.06
2023-02-13T04:10:37.589Z,98344.47
2023-02-13T04:13:15.007Z,98352.75
2023-02-13T04:15:51.148Z,98356.13
2023-02-13T04:18:23.953Z,98356.81
2023-02-13T04:20:53.757Z,98354.31
2023-02-13T04:23:23.048Z,98363.44
2023-02-13T04:25:57.369Z,98367.66
2023-02-13T04:28:26.674Z,98359.78
2023-02-13T04:30:56.334Z,98358.66
2023-02-13T04:33:24.961Z,98356.66
2023-02-13T04:35:53.609Z,98357.50
2023-02-13T04:38:23.043Z,98358.06
2023-02-13T04:40:52.717Z,98362.03
2023-02-13T04:43:22.052Z,98360.19
2023-02-13T04:45:51.702Z,98355.69
2023-02-13T04:48:20.082Z,98366.78
2023-02-13T04:50:49.716Z,98364.25
2023-02-13T04:53:18.097Z,98368.97
2023-02-13T04:55:47.649Z,98373.34
2023-02-13T04:58:17.766Z,98370.72
2023-02-13T05:00:46.256Z,98355.38
2023-02-13T05:03:15.685Z,98361.28
2023-02-13T05:05:44.689Z,98361.97
2023-02-13T05:08:13.948Z,98362.38
2023-02-13T05:10:42.738Z,98363.22
2023-02-13T05:13:12.047Z,98363.06
2023-02-13T05:15:42.575Z,98364.59
2023-02-13T05:18:11.458Z,98367.97
2023-02-13T05:20:41.213Z,98362.34
2023-02-13T05:23:23.045Z,98364.91
2023-02-13T05:25:52.221Z,98368.00
2023-02-13T05:28:34.589Z,98361.84
2023-02-13T05:31:05.775Z,98366.22
2023-02-13T05:33:34.188Z,98363.00
2023-02-13T05:36:03.120Z,98351.19
2023-02-13T05:38:31.520Z,98366.38
2023-02-13T05:41:00.964Z,98369.47
2023-02-13T05:43:29.976Z,98364.41
2023-02-13T05:46:08.974Z,98369.75
2023-02-13T05:48:37.452Z,98361.84
2023-02-13T05:51:08.315Z,98375.06
2023-02-13T05:53:36.846Z,98368.59
2023-02-13T05:56:07.005Z,98374.38
2023-02-13T05:58:36.258Z,98369.44
2023-02-13T06:01:07.005Z,98372.25
2023-02-13T06:03:36.499Z,98381.84
2023-02-13T06:06:05.178Z,98390.13
2023-02-13T06:08:34.987Z,98385.81
2023-02-13T06:11:03.937Z,98398.19
2023-02-13T06:13:32.340Z,98386.50
2023-02-13T06:16:01.129Z,98398.59
2023-02-13T06:18:32.050Z,98400.16
2023-02-13T06:21:01.231Z,98394.69
2023-02-13T06:23:29.841Z,98396.06
2023-02-13T06:25:58.309Z,98393.97
2023-02-13T06:28:26.629Z,98396.50
2023-02-13T06:30:56.130Z,98400.88
2023-02-13T06:33:24.946Z,98401.72
2023-02-13T06:35:55.329Z,98386.50
2023-02-13T06:38:24.368Z,98414.94
2023-02-13T06:40:54.058Z,98431.16
2023-02-13T06:43:22.418Z,98418.47
2023-02-13T06:45:51.861Z,98424.53
2023-02-13T06:48:20.694Z,98414.81
2023-02-13T06:50:49.033Z,98441.69
2023-02-13T06:53:18.911Z,98441.41
2023-02-13T06:55:48.020Z,98437.63
2023-02-13T06:58:16.342Z,98445.66
2023-02-13T07:00:46.075Z,98445.81
2023-02-13T07:03:15.109Z,98453.53
2023-02-13T07:05:44.200Z,98448.06
2023-02-13T07:08:15.133Z,98451.84
2023-02-13T07:10:45.058Z,98457.06
2023-02-13T07:13:13.414Z,98453.53
2023-02-13T07:15:42.795Z,98456.94
2023-02-13T07:18:14.693Z,98458.34
2023-02-13T07:20:43.007Z,98457.34
2023-02-13T07:23:11.967Z,98459.31
2023-02-13T07:25:40.288Z,98456.09
2023-02-13T07:28:11.188Z,98446.09
2023-02-13T07:30:39.661Z,98467.19
2023-02-13T07:33:08.050Z,98473.28
2023-02-13T07:35:37.711Z,98468.47
2023-02-13T07:38:06.578Z,98468.78
2023-02-13T07:40:34.928Z,98473.81
2023-02-13T07:43:03.328Z,98473.97
2023-02-13T07:45:33.007Z,98476.34
2023-02-13T07:48:02.699Z,98475.25
2023-02-13T07:50:31.175Z,98474.41
2023-02-13T07:53:01.756Z,98472.00
2023-02-13T07:55:31.195Z,98474.66
2023-02-13T07:58:01.480Z,98480.47
2023-02-13T08:00:29.900Z,98473.69
2023-02-13T08:03:01.817Z,98471.00
2023-02-13T08:05:32.142Z,98465.06
2023-02-13T08:08:00.549Z,98472.41
2023-02-13T08:10:46.317Z,98477.19
2023-02-13T08:13:17.322Z,98468.63
2023-02-13T08:15:45.662Z,98476.91
2023-02-13T08:18:16.253Z,98474.13
2023-02-13T08:20:45.439Z,98480.72
2023-02-13T08:23:14.847Z,98474.97
2023-02-13T08:25:43.257Z,98473.97
2023-02-13T08:28:11.753Z,98478.47
2023-02-13T08:30:40.721Z,98476.09
2023-02-13T08:33:10.014Z,98461.44
2023-02-13T08:35:39.672Z,98470.59
2023-02-13T08:38:09.060Z,98474.66
2023-02-13T08:40:37.405Z,98481.00
2023-02-13T08:43:09.027Z,98469.78
2023-02-13T08:45:38.069Z,98477.38
2023-02-13T08:48:08.531Z,98490.72
2023-02-13T08:50:37.400Z,98486.66
2023-02-13T08:53:08.457Z,98486.09
2023-02-13T08:55:36.839Z,98486.38
2023-02-13T08:58:07.323Z,98487.47
2023-02-13T09:00:35.707Z,98484.41
2023-02-13T09:03:07.332Z,98482.97
2023-02-13T09:05:36.198Z,98489.03
2023-02-13T09:08:05.734Z,98491.69
2023-02-13T09:10:35.867Z,98489.19
2023-02-13T09:13:05.425Z,98488.34
2023-02-13T09:15:34.493Z,98471.28
2023-02-13T09:18:04.351Z,98489.31
2023-02-13T09:20:34.733Z,98481.44
2023-02-13T09:23:05.017Z,98489.19
2023-02-13T09:25:35.277Z,98496.09
2023-02-13T09:28:03.933Z,98495.91
2023-02-13T09:30:32.778Z,98495.09
2023-02-13T09:33:01.409Z,98496.38
2023-02-13T09:35:30.878Z,98496.25
2023-02-13T09:38:02.534Z,98494.94
2023-02-13T09:40:36.540Z,98496.66
2023-02-13T09:43:13.464Z,98506.34
2023-02-13T09:45:44.485Z,98502.41
2023-02-13T09:48:20.860Z,98509.00
2023-02-13T09:50:49.284Z,98504.50
2023-02-13T09:53:23.469Z,98499.53
2023-02-13T09:55:59.473Z,98498.28
2023-02-13T09:58:44.748Z,98495.59
2023-02-13T10:01:21.547Z,98494.47
2023-02-13T10:04:01.504Z,98497.63
2023-02-13T10:06:33.596Z,98493.09
2023-02-13T10:09:12.016Z,98507.88
2023-02-13T10:12:02.327Z,98506.00
2023-02-13T10:14:39.522Z,98502.72
2023-02-13T10:17:14.823Z,98503.72
2023-02-13T10:19:48.042Z,98500.88
2023-02-13T10:22:19.103Z,98505.13
2023-02-13T10:24:51.759Z,98502.59
2023-02-13T10:27:23.956Z,98502.88
2023-02-13T10:30:09.621Z,98504.28
2023-02-13T10:32:46.561Z,98501.66
2023-02-13T10:35:23.462Z,98491.78
2023-02-13T10:37:56.548Z,98492.88
2023-02-13T10:40:32.817Z,98486.56
2023-02-13T10:43:09.650Z,98486.88
2023-02-13T10:46:04.340Z,98488.81
2023-02-13T10:48:46.935Z,98479.38
2023-02-13T10:51:25.726Z,98489.66
2023-02-13T10:54:14.030Z,98476.84
2023-02-13T10:56:48.183Z,98479.91
2023-02-13T10:59:43.159Z,98486.78
2023-02-13T11:02:24.736Z,98461.78
2023-02-13T11:04:58.903Z,98481.84
2023-02-13T11:07:30.141Z,98467.34
2023-02-13T11:10:04.402Z,98473.13
2023-02-13T11:12:35.474Z,98455.47
2023-02-13T11:15:07.257Z,98468.81
2023-02-13T11:17:43.657Z,98465.19
2023-02-13T11:20:30.969Z,98467.47
2023-02-13T11:23:19.967Z,98468.44
2023-02-13T11:25:58.260Z,98470.56
2023-02-13T11:28:30.156Z,98467.81
2023-02-13T11:31:14.086Z,98453.16
2023-02-13T11:33:43.939Z,98464.66
2023-02-13T11:36:17.085Z,98482.41
2023-02-13T11:38:46.691Z,98472.19
2023-02-13T11:41:20.287Z,98479.09
2023-02-13T11:43:52.226Z,98474.56
2023-02-13T11:46:23.460Z,98482.16
2023-02-13T11:49:02.328Z,98486.84
2023-02-13T11:51:40.384Z,98485.13
2023-02-13T11:54:24.474Z,98476.38
2023-02-13T11:57:04.712Z,98479.16
2023-02-13T11:59:42.403Z,98476.31
2023-02-13T12:02:16.768Z,98470.81
2023-02-13T12:04:48.485Z,98470.50
2023-02-13T12:07:21.886Z,98469.59
2023-02-13T12:09:55.073Z,98468.69
2023-02-13T12:12:30.483Z,98465.69
2023-02-13T12:15:01.998Z,98467.31
2023-02-13T12:17:32.841Z,98453.66
2023-02-13T12:20:02.614Z,98463.22
2023-02-13T12:22:35.037Z,98453.00
2023-02-13T12:25:33.694Z,98457.38
2023-02-13T12:28:12.898Z,98453.22
2023-02-13T12:30:57.987Z,98447.59
2023-02-13T12:33:40.966Z,98447.59
2023-02-13T12:36:20.007Z,98449.03
2023-02-13T12:39:06.565Z,98450.03
2023-02-13T12:41:42.268Z,98435.09
2023-02-13T12:44:29.451Z,98449.44
2023-02-13T12:47:08.937Z,98446.03
2023-02-13T12:50:24.663Z,98438.38
2023-02-13T12:53:12.522Z,98443.81
2023-02-13T12:56:14.275Z,98441.91
2023-02-13T12:59:04.661Z,98430.94
2023-02-13T13:02:03.801Z,98430.59
2023-02-13T13:04:48.162Z,98422.72
2023-02-13T13:07:32.299Z,98424.38
2023-02-13T13:10:21.723Z,98432.06
2023-02-13T13:12:59.288Z,98426.28
2023-02-13T13:15:37.582Z,98423.41
2023-02-13T13:18:29.613Z,98426.81
2023-02-13T13:21:12.500Z,98418.63
2023-02-13T13:23:47.906Z,98415.97
2023-02-13T13:26:25.952Z,98411.41
2023-02-13T13:28:57.706Z,98414.50
2023-02-13T13:31:28.757Z,98409.00
2023-02-13T13:34:03.891Z,98410.88
2023-02-13T13:36:41.134Z,98413.03
2023-02-13T13:39:21.803Z,98410.50
2023-02-13T13:42:02.862Z,98405.47
2023-02-13T13:44:49.425Z,98416.72
2023-02-13T13:47:28.171Z,98400.56
2023-02-13T13:49:59.568Z,98413.88
2023-02-13T13:52:30.099Z,98415.22
2023-02-13T13:55:02.824Z,98408.16
2023-02-13T13:58:01.600Z,98406.59
2023-02-13T14:00:31.526Z,98410.28
2023-02-13T14:03:23.852Z,98403.03
2023-02-13T14:06:00.210Z,98409.44
2023-02-13T14:08:55.251Z,98404.75
2023-02-13T14:11:32.954Z,98404.75
2023-02-13T14:14:04.710Z,98397.50
2023-02-13T14:16:42.594Z,98393.31
2023-02-13T14:19:30.652Z,98395.38
2023-02-13T14:22:35.393Z,98390.00
2023-02-13T14:25:06.433Z,98377.03
2023-02-13T14:27:38.243Z,98389.34
2023-02-13T14:30:28.331Z,98392.03
2023-02-13T14:32:57.600Z,98391.38
2023-02-13T14:35:28.861Z,98393.41
2023-02-13T14:38:00.333Z,98395.56
2023-02-13T14:40:45.224Z,98396.59
2023-02-13T14:43:28.828Z,98402.16
2023-02-13T14:46:05.611Z,98398.09
2023-02-13T14:48:40.494Z,98395.06
2023-02-13T14:51:17.301Z,98394.72
2023-02-13T14:53:53.064Z,98395.00
2023-02-13T14:56:23.629Z,98399.91
2023-02-13T14:58:56.417Z,98387.56
2023-02-13T15:01:34.658Z,98383.53
2023-02-13T15:04:12.009Z,98385.53
2023-02-13T15:06:42.868Z,98382.84
2023-02-13T15:09:22.829Z,98383.69
2023-02-13T15:11:51.492Z,98381.53
2023-02-13T15:14:22.712Z,98378.16
2023-02-13T15:16:58.655Z,98374.63
2023-02-13T15:19:28.363Z,98377.47
2023-02-13T15:22:00.222Z,98352.59
2023-02-13T15:24:37.678Z,98377.47
2023-02-13T15:27:09.040Z,98385.91
2023-02-13T15:29:49.538Z,98386.88
2023-02-13T15:32:28.728Z,98385.19
2023-02-13T15:34:57.678Z,98383.44
2023-02-13T15:37:30.079Z,98392.44
2023-02-13T15:40:17.487Z,98383.38
2023-02-13T15:42:46.536Z,98383.72
2023-02-13T15:45:19.047Z,98382.75
2023-02-13T15:47:49.691Z,98376.75
2023-02-13T15:50:20.524Z,98379.06
2023-02-13T15:52:49.867Z,98376.38
2023-02-13T15:55:24.928Z,98378.78
2023-02-13T15:57:56.397Z,98374.00
2023-02-13T16:00:27.867Z,98361.69
2023-02-13T16:02:59.841Z,98373.47
2023-02-13T16:05:39.996Z,98364.91
2023-02-13T16:08:30.524Z,98379.28
2023-02-13T16:11:27.254Z,98377.09
2023-02-13T16:14:06.469Z,98384.78
2023-02-13T16:16:44.888Z,98376.56
2023-02-13T16:19:43.370Z,98380.94
2023-02-13T16:22:24.508Z,98382.97
2023-02-13T16:24:55.344Z,98387.69
2023-02-13T16:27:27.908Z,98378.44
2023-02-13T16:30:01.196Z,98385.38
2023-02-13T16:32:32.149Z,98376.28
2023-02-13T16:35:27.020Z,98380.66
2023-02-13T16:37:58.814Z,98368.88
2023-02-13T16:40:42.356Z,98378.66
2023-02-13T16:43:36.576Z,98387.25
2023-02-13T16:46:22.461Z,98382.53
2023-02-13T16:49:03.187Z,98391.38
2023-02-13T16:51:37.654Z,98379.75
2023-02-13T16:54:15.902Z,98396.09
2023-02-13T16:56:48.142Z,98377.03
2023-02-13T16:59:50.170Z,98394.22
2023-02-13T17:02:23.758Z,98400.06
2023-02-13T17:04:55.584Z,98398.69
2023-02-13T17:07:29.029Z,98402.94
2023-02-13T17:10:02.089Z,98399.88
2023-02-13T17:12:32.377Z,98385.09
2023-02-13T17:15:03.482Z,98410.88
2023-02-13T17:17:33.437Z,98421.16
2023-02-13T17:20:04.349Z,98413.03
2023-02-13T17:22:37.042Z,98416.88
2023-02-13T17:25:08.451Z,98415.81
2023-02-13T17:27:37.317Z,98411.13
2023-02-13T17:30:07.103Z,98410.94
2023-02-13T17:32:35.489Z,98416.16
2023-02-13T17:35:04.377Z,98418.38
2023-02-13T17:37:34.602Z,98412.47
2023-02-13T17:40:05.442Z,98396.28
2023-02-13T17:42:34.098Z,98408.06
2023-02-13T17:45:02.537Z,98402.47
2023-02-13T17:47:31.958Z,98399.63
2023-02-13T17:50:09.439Z,98402.69
2023-02-13T17:52:41.556Z,98397.13
2023-02-13T17:55:18.123Z,98402.03
2023-02-13T17:57:47.589Z,98398.19
2023-02-13T18:00:16.547Z,98405.78
2023-02-13T18:02:47.838Z,98399.06
2023-02-13T18:05:16.903Z,98402.59
2023-02-13T18:07:47.014Z,98393.03
2023-02-13T18:13:07.452Z,98385.47
2023-02-13T18:15:40.214Z,98390.34
2023-02-13T18:18:09.013Z,98398.25
2023-02-13T18:20:37.582Z,98400.78
2023-02-13T18:23:07.027Z,98394.56
2023-02-13T18:25:37.762Z,98393.59
2023-02-13T18:28:06.211Z,98398.25
2023-02-13T18:30:34.568Z,98391.38
2023-02-13T18:33:05.473Z,98396.09
2023-02-13T18:35:36.491Z,98396.09
2023-02-13T18:38:05.706Z,98395.34
2023-02-13T18:40:34.342Z,98391.44
2023-02-13T18:43:04.579Z,98392.31
2023-02-13T18:45:33.648Z,98390.94
2023-02-13T18:48:02.917Z,98386.19
2023-02-13T18:50:34.112Z,98392.94
2023-02-13T18:53:02.449Z,98385.56
2023-02-13T18:55:31.616Z,98379.34
2023-02-13T18:58:00.770Z,98389.91
2023-02-13T19:00:30.801Z,98384.72
2023-02-13T19:03:00.740Z,98388.56
2023-02-13T19:05:29.064Z,98393.78
2023-02-13T19:07:59.762Z,98395.72
2023-02-13T19:10:29.130Z,98388.94
2023-02-13T19:12:57.584Z,98395.44
2023-02-13T19:15:25.981Z,98394.78
2023-02-13T19:17:57.666Z,98392.63
2023-02-13T19:20:26.282Z,98393.47
2023-02-13T19:22:55.093Z,98387.09
2023-02-13T19:25:24.021Z,98378.50
2023-02-13T19:27:52.387Z,98382.03
2023-02-13T19:30:21.086Z,98394.78
2023-02-13T19:32:49.997Z,98387.03
2023-02-13T19:35:19.896Z,98394.94
2023-02-13T19:37:48.251Z,98391.41
2023-02-13T19:40:16.782Z,98389.81
2023-02-13T19:42:45.092Z,98385.59
2023-02-13T19:45:13.475Z,98392.66
2023-02-13T19:47:41.908Z,98398.13
2023-02-13T19:50:11.164Z,98395.91
2023-02-13T19:52:43.678Z,98386.66
2023-02-13T19:55:11.985Z,98396.59
2023-02-13T19:57:40.745Z,98399.06
2023-02-13T20:00:10.248Z,98404.28
2023-02-13T20:02:43.289Z,98416.44
2023-02-13T20:05:11.866Z,98419.38
2023-02-13T20:07:41.092Z,98413.56
2023-02-13T20:10:11.653Z,98410.00
2023-02-13T20:12:40.530Z,98423.34
2023-02-13T20:15:10.116Z,98415.06
2023-02-13T20:17:38.832Z,98420.41
2023-02-13T20:20:09.314Z,98419.91
2023-02-13T20:22:37.645Z,98419.50
2023-02-13T20:25:07.241Z,98410.00
2023-02-13T20:27:42.036Z,98409.69
2023-02-13T20:30:15.649Z,98412.88
2023-02-13T20:32:44.330Z,98417.69
2023-02-13T20:35:14.876Z,98416.53
2023-02-13T20:37:43.309Z,98412.09
2023-02-13T20:40:13.342Z,98407.06
2023-02-13T20:42:43.076Z,98404.53
2023-02-13T20:45:12.235Z,98403.84
2023-02-13T20:47:42.805Z,98404.47
2023-02-13T20:50:12.344Z,98402.09
2023-02-13T20:52:41.212Z,98402.25
2023-02-13T20:55:10.115Z,98376.66
2023-02-13T20:57:38.428Z,98386.81
2023-02-13T21:00:13.608Z,98385.97
2023-02-13T21:02:42.018Z,98383.47
2023-02-13T21:05:10.926Z,98381.06
2023-02-13T21:07:39.427Z,98366.44
2023-02-13T21:10:08.476Z,98379.38
2023-02-13T21:12:36.890Z,98373.59
2023-02-13T21:15:05.544Z,98370.63
2023-02-13T21:17:35.684Z,98360.53
2023-02-13T21:20:05.593Z,98319.72
2023-02-13T21:22:35.330Z,98352.06
2023-02-13T21:25:04.154Z,98349.66
2023-02-13T21:27:32.892Z,98357.66
2023-02-13T21:30:01.789Z,98360.94
2023-02-13T21:32:30.285Z,98370.63
2023-02-13T21:35:01.053Z,98361.91
2023-02-13T21:37:30.542Z,98355.16
2023-02-13T21:39:59.805Z,98356.84
2023-02-13T21:42:28.565Z,98358.81
2023-02-13T21:44:56.877Z,98358.53
2023-02-13T21:47:26.314Z,98355.16
2023-02-13T21:49:54.667Z,98355.16
2023-02-13T21:52:31.849Z,98358.53
2023-02-13T21:55:00.207Z,98359.81
2023-02-13T21:57:29.409Z,98349.13
2023-02-13T21:59:58.109Z,98354.59
2023-02-13T22:02:28.840Z,98364.03
2023-02-13T22:04:57.231Z,98365.72
2023-02-13T22:07:27.501Z,98361.06
2023-02-13T22:09:56.357Z,98358.53
2023-02-13T22:12:24.862Z,98359.22
2023-02-13T22:14:56.022Z,98361.16
2023-02-13T22:17:24.403Z,98354.25
2023-02-13T22:19:53.143Z,98352.84
2023-02-13T22:22:21.499Z,98352.53
2023-02-13T22:24:52.789Z,98356.47
2023-02-13T22:27:21.140Z,98351.97
2023-02-13T22:29:52.400Z,98341.84
2023-02-13T22:32:21.357Z,98342.13
2023-02-13T22:34:50.195Z,98344.84
2023-02-13T22:37:18.556Z,98341.03
2023-02-13T22:39:46.959Z,98338.63
2023-02-13T22:42:16.695Z,98339.63
2023-02-13T22:44:45.655Z,98336.94
2023-02-13T22:47:14.008Z,98334.28
2023-02-13T22:49:42.398Z,98333.88
2023-02-13T22:52:11.483Z,98331.59
2023-02-13T22:54:40.667Z,98329.47
2023-02-13T22:57:09.074Z,98331.31
2023-02-13T22:59:40.252Z,98335.94
2023-02-13T23:02:08.728Z,98342.03
2023-02-13T23:04:37.178Z,98344.97
2023-02-13T23:07:05.608Z,98347.38
2023-02-13T23:09:34.830Z,98354.28
2023-02-13T23:12:20.937Z,98356.13
2023-02-13T23:14:51.069Z,98360.09
2023-02-13T23:17:37.194Z,98363.44
2023-02-13T23:20:07.729Z,98364.59
2023-02-13T23:22:36.420Z,98364.00
2023-02-13T23:25:06.190Z,98365.84
2023-02-13T23:27:36.335Z,98353.31
2023-02-13T23:30:08.309Z,98355.56
2023-02-13T23:32:37.277Z,98360.78
2023-02-13T23:35:07.381Z,98364.28
2023-02-13T23:37:36.272Z,98371.47
2023-02-13T23:40:05.242Z,98360.78
2023-02-13T23:42:35.053Z,98362.47
2023-02-13T23:45:03.436Z,98361.63
2023-02-13T23:47:33.572Z,98360.06
2023-02-13T23:50:01.895Z,98361.06
2023-02-13T23:52:31.067Z,98352.06
2023-02-13T23:54:59.968Z,98356.13
2023-02-13T23:57:28.356Z,98353.34
2023-02-13T23:59:57.482Z,98357.72
